Ana Sayfa
METAR-TAF:

METAR-TAF

Havaalanları :

Kupang, Endonezya

Enlem: 10-10-17S, Boylam: 123-40-16E, yükseklik: 102 m

Güncel hava durumu gözlemi

Rapor saat 08:00 UTC de 7 saat ve 26 dakika önce yapıldı.
Rüzgar doğu/güneydoğudan 20 kt
Sıcaklık 29°C
Nem 40%
Basınç 1010 hPa
Görüş mesafesi 10 km veya daha fazla
1800 ft yükseklikte az bulutlu

METAR: WATT 210800Z 11020KT 9999 FEW018 29/14 Q1010 NOSIG

Saat: 22:26 (15:26 UTC)

Tahmin

Rapor saat 11:00 UTC de 4 saat ve 26 dakika önce yapıldı.
Ayın 21'si saat 12 UTC'den ayın 22'si saat 12 UTC'ye kadar geçerli Tahmin
Rüzgar doğudan 15 kt
Görüş mesafesi: 8000 m
2000 ft yükseklikte az bulutlu
Dönüşüyor
ayın 21'si saat 15 UTC'den ayın 21'si saat 17 UTC'ye kadar
Rüzgar doğudan 8 kt
Dönüşüyor
ayın 22'si saat 00 UTC'den ayın 22'si saat 02 UTC'ye kadar
Rüzgar doğu/güneydoğudan 20 kt

TAF: WATT 211100Z 2112/2212 10015KT 8000 FEW020 BECMG 2115/2117 10008KT BECMG 2200/2202 12020KT

4.000'den fazla havaalanı için hava durumu gözlemleri ve tahminleri (METAR ve TAF raporları).

Kullanılabilir istasyonlar harita üzerinde sarı ve kırmızı noktalarla gösterilir.

İstasyonun adını görmek için fareyi noktanın üzerinde gezdirin.

Sonrasında hava gözlem ve tahminlerini görmek için tıklayın.

Haritayı değiştirmek için: yaklaştırmak için siyah artı işaretli yeşil düğmeye ve uzaklaştırmak için de eksi işaretli düğmeye hızla tıklayın; bitişik haritalar için yeşil okları kullanın.


METAR-TAF: